sensor_id;sensor_type;location;lat;lon;timestamp;P1;durP1;ratioP1;P2;durP2;ratioP2
10389;SDS011;5241;47.830;12.972;2022-11-15T00:01:33;6.47;;;4.60;;
10389;SDS011;5241;47.830;12.972;2022-11-15T00:03:59;6.63;;;4.90;;
10389;SDS011;5241;47.830;12.972;2022-11-15T00:06:24;6.07;;;4.90;;
10389;SDS011;5241;47.830;12.972;2022-11-15T00:08:50;5.47;;;4.70;;
10389;SDS011;5241;47.830;12.972;2022-11-15T00:11:15;7.17;;;5.10;;
10389;SDS011;5241;47.830;12.972;2022-11-15T00:13:41;6.87;;;5.20;;
10389;SDS011;5241;47.830;12.972;2022-11-15T00:16:07;7.30;;;4.67;;
10389;SDS011;5241;47.830;12.972;2022-11-15T00:18:33;5.53;;;4.23;;
10389;SDS011;5241;47.830;12.972;2022-11-15T00:21:03;5.93;;;4.70;;
10389;SDS011;5241;47.830;12.972;2022-11-15T00:23:31;5.03;;;4.37;;
10389;SDS011;5241;47.830;12.972;2022-11-15T00:25:58;5.27;;;4.77;;
10389;SDS011;5241;47.830;12.972;2022-11-15T00:28:24;5.33;;;4.33;;
10389;SDS011;5241;47.830;12.972;2022-11-15T00:30:50;5.53;;;4.40;;
10389;SDS011;5241;47.830;12.972;2022-11-15T00:33:16;5.20;;;4.03;;
10389;SDS011;5241;47.830;12.972;2022-11-15T00:35:42;6.80;;;4.87;;
10389;SDS011;5241;47.830;12.972;2022-11-15T00:38:07;8.77;;;4.50;;
10389;SDS011;5241;47.830;12.972;2022-11-15T00:40:33;6.53;;;5.40;;
10389;SDS011;5241;47.830;12.972;2022-11-15T00:42:59;5.73;;;4.40;;
10389;SDS011;5241;47.830;12.972;2022-11-15T00:45:25;6.20;;;4.40;;
10389;SDS011;5241;47.830;12.972;2022-11-15T00:47:51;6.57;;;4.20;;
10389;SDS011;5241;47.830;12.972;2022-11-15T00:50:17;7.07;;;4.40;;
10389;SDS011;5241;47.830;12.972;2022-11-15T00:52:42;5.10;;;4.47;;
10389;SDS011;5241;47.830;12.972;2022-11-15T00:55:17;6.87;;;4.10;;
10389;SDS011;5241;47.830;12.972;2022-11-15T00:57:43;6.03;;;4.67;;
10389;SDS011;5241;47.830;12.972;2022-11-15T01:00:09;6.67;;;4.50;;
10389;SDS011;5241;47.830;12.972;2022-11-15T01:02:35;4.87;;;4.30;;
10389;SDS011;5241;47.830;12.972;2022-11-15T01:05:01;6.50;;;4.60;;
10389;SDS011;5241;47.830;12.972;2022-11-15T01:07:27;6.40;;;4.90;;
10389;SDS011;5241;47.830;12.972;2022-11-15T01:09:53;5.73;;;4.30;;
10389;SDS011;5241;47.830;12.972;2022-11-15T01:12:19;4.63;;;4.13;;
10389;SDS011;5241;47.830;12.972;2022-11-15T01:14:44;7.87;;;5.03;;
10389;SDS011;5241;47.830;12.972;2022-11-15T01:17:10;5.80;;;4.30;;
10389;SDS011;5241;47.830;12.972;2022-11-15T01:19:35;6.37;;;4.70;;
10389;SDS011;5241;47.830;12.972;2022-11-15T01:22:01;6.77;;;4.63;;
10389;SDS011;5241;47.830;12.972;2022-11-15T01:24:26;6.60;;;4.57;;
10389;SDS011;5241;47.830;12.972;2022-11-15T01:26:52;5.70;;;4.53;;
10389;SDS011;5241;47.830;12.972;2022-11-15T01:29:18;5.33;;;4.27;;
10389;SDS011;5241;47.830;12.972;2022-11-15T01:31:43;5.03;;;4.13;;
10389;SDS011;5241;47.830;12.972;2022-11-15T01:34:09;5.37;;;4.27;;
10389;SDS011;5241;47.830;12.972;2022-11-15T01:36:34;5.00;;;4.23;;
10389;SDS011;5241;47.830;12.972;2022-11-15T01:39:00;5.43;;;4.10;;
10389;SDS011;5241;47.830;12.972;2022-11-15T01:41:27;5.07;;;4.27;;
10389;SDS011;5241;47.830;12.972;2022-11-15T01:43:55;4.83;;;4.13;;
10389;SDS011;5241;47.830;12.972;2022-11-15T01:48:59;5.23;;;4.00;;
10389;SDS011;5241;47.830;12.972;2022-11-15T01:51:28;5.00;;;3.90;;
10389;SDS011;5241;47.830;12.972;2022-11-15T01:53:57;4.40;;;3.60;;
10389;SDS011;5241;47.830;12.972;2022-11-15T01:56:27;4.47;;;3.50;;
10389;SDS011;5241;47.830;12.972;2022-11-15T01:58:57;5.13;;;3.67;;
10389;SDS011;5241;47.830;12.972;2022-11-15T02:01:26;4.47;;;3.70;;
10389;SDS011;5241;47.830;12.972;2022-11-15T02:03:59;7.17;;;3.97;;
10389;SDS011;5241;47.830;12.972;2022-11-15T02:06:35;5.97;;;3.80;;
10389;SDS011;5241;47.830;12.972;2022-11-15T02:09:01;7.20;;;3.50;;
10389;SDS011;5241;47.830;12.972;2022-11-15T02:11:27;4.60;;;4.07;;
10389;SDS011;5241;47.830;12.972;2022-11-15T02:13:53;5.67;;;4.07;;
10389;SDS011;5241;47.830;12.972;2022-11-15T02:19:15;4.77;;;3.83;;
10389;SDS011;5241;47.830;12.972;2022-11-15T02:27:21;4.37;;;3.60;;
10389;SDS011;5241;47.830;12.972;2022-11-15T02:30:20;6.03;;;3.70;;
10389;SDS011;5241;47.830;12.972;2022-11-15T02:32:52;6.30;;;4.10;;
10389;SDS011;5241;47.830;12.972;2022-11-15T02:38:34;5.37;;;4.07;;
10389;SDS011;5241;47.830;12.972;2022-11-15T02:41:33;5.20;;;3.60;;
10389;SDS011;5241;47.830;12.972;2022-11-15T02:44:02;4.87;;;3.60;;
10389;SDS011;5241;47.830;12.972;2022-11-15T02:49:28;5.90;;;3.90;;
10389;SDS011;5241;47.830;12.972;2022-11-15T02:51:56;5.03;;;4.00;;
10389;SDS011;5241;47.830;12.972;2022-11-15T02:54:23;9.57;;;4.03;;
10389;SDS011;5241;47.830;12.972;2022-11-15T02:56:53;6.23;;;3.90;;
10389;SDS011;5241;47.830;12.972;2022-11-15T03:02:47;4.13;;;3.30;;
10389;SDS011;5241;47.830;12.972;2022-11-15T03:05:22;4.93;;;3.70;;
10389;SDS011;5241;47.830;12.972;2022-11-15T03:16:06;5.77;;;4.00;;
10389;SDS011;5241;47.830;12.972;2022-11-15T03:18:38;5.27;;;3.90;;
10389;SDS011;5241;47.830;12.972;2022-11-15T03:21:08;4.73;;;3.80;;
10389;SDS011;5241;47.830;12.972;2022-11-15T03:23:36;8.17;;;4.30;;
10389;SDS011;5241;47.830;12.972;2022-11-15T03:26:05;5.00;;;4.13;;
10389;SDS011;5241;47.830;12.972;2022-11-15T03:28:36;5.10;;;3.70;;
10389;SDS011;5241;47.830;12.972;2022-11-15T03:31:12;5.77;;;4.17;;
10389;SDS011;5241;47.830;12.972;2022-11-15T03:33:59;9.67;;;4.00;;
10389;SDS011;5241;47.830;12.972;2022-11-15T03:36:28;10.07;;;4.40;;
10389;SDS011;5241;47.830;12.972;2022-11-15T03:38:57;4.07;;;3.30;;
10389;SDS011;5241;47.830;12.972;2022-11-15T03:41:28;4.10;;;3.37;;
10389;SDS011;5241;47.830;12.972;2022-11-15T03:47:10;5.30;;;4.50;;
10389;SDS011;5241;47.830;12.972;2022-11-15T03:49:44;3.83;;;3.53;;
10389;SDS011;5241;47.830;12.972;2022-11-15T03:52:17;4.23;;;3.27;;
10389;SDS011;5241;47.830;12.972;2022-11-15T03:54:54;4.07;;;3.57;;
10389;SDS011;5241;47.830;12.972;2022-11-15T03:57:21;4.57;;;3.30;;
10389;SDS011;5241;47.830;12.972;2022-11-15T03:59:47;3.83;;;3.40;;
10389;SDS011;5241;47.830;12.972;2022-11-15T04:02:13;4.90;;;3.47;;
10389;SDS011;5241;47.830;12.972;2022-11-15T04:04:39;4.27;;;3.60;;
10389;SDS011;5241;47.830;12.972;2022-11-15T04:07:04;4.03;;;3.30;;
10389;SDS011;5241;47.830;12.972;2022-11-15T04:09:30;4.57;;;3.33;;
10389;SDS011;5241;47.830;12.972;2022-11-15T04:11:56;5.30;;;3.50;;
10389;SDS011;5241;47.830;12.972;2022-11-15T04:14:21;4.10;;;3.70;;
10389;SDS011;5241;47.830;12.972;2022-11-15T04:16:47;4.57;;;3.50;;
10389;SDS011;5241;47.830;12.972;2022-11-15T04:19:13;4.73;;;3.70;;
10389;SDS011;5241;47.830;12.972;2022-11-15T04:21:57;6.97;;;3.90;;
10389;SDS011;5241;47.830;12.972;2022-11-15T04:24:41;3.70;;;3.20;;
10389;SDS011;5241;47.830;12.972;2022-11-15T04:27:06;5.00;;;3.67;;
10389;SDS011;5241;47.830;12.972;2022-11-15T04:29:32;4.73;;;3.53;;
10389;SDS011;5241;47.830;12.972;2022-11-15T04:32:03;6.70;;;3.50;;
10389;SDS011;5241;47.830;12.972;2022-11-15T04:34:30;4.53;;;3.53;;
10389;SDS011;5241;47.830;12.972;2022-11-15T04:36:56;6.43;;;3.33;;
10389;SDS011;5241;47.830;12.972;2022-11-15T04:39:37;3.83;;;3.43;;
10389;SDS011;5241;47.830;12.972;2022-11-15T04:42:03;5.60;;;3.37;;
10389;SDS011;5241;47.830;12.972;2022-11-15T04:44:29;3.87;;;3.43;;
10389;SDS011;5241;47.830;12.972;2022-11-15T04:46:54;4.30;;;3.03;;
10389;SDS011;5241;47.830;12.972;2022-11-15T04:49:20;4.87;;;3.53;;
10389;SDS011;5241;47.830;12.972;2022-11-15T04:51:46;5.50;;;4.27;;
10389;SDS011;5241;47.830;12.972;2022-11-15T04:54:11;5.37;;;3.37;;
10389;SDS011;5241;47.830;12.972;2022-11-15T04:56:37;4.43;;;3.80;;
10389;SDS011;5241;47.830;12.972;2022-11-15T04:59:02;7.13;;;3.67;;
10389;SDS011;5241;47.830;12.972;2022-11-15T05:01:28;3.97;;;3.47;;
10389;SDS011;5241;47.830;12.972;2022-11-15T05:03:53;4.13;;;3.57;;
10389;SDS011;5241;47.830;12.972;2022-11-15T05:06:37;5.87;;;3.40;;
10389;SDS011;5241;47.830;12.972;2022-11-15T05:09:03;4.30;;;3.80;;
10389;SDS011;5241;47.830;12.972;2022-11-15T05:11:29;4.00;;;3.43;;
10389;SDS011;5241;47.830;12.972;2022-11-15T05:13:54;3.80;;;3.10;;
10389;SDS011;5241;47.830;12.972;2022-11-15T05:16:20;3.93;;;3.57;;
10389;SDS011;5241;47.830;12.972;2022-11-15T05:18:45;3.80;;;2.90;;
10389;SDS011;5241;47.830;12.972;2022-11-15T05:21:12;4.80;;;3.33;;
10389;SDS011;5241;47.830;12.972;2022-11-15T05:23:39;4.53;;;3.30;;
10389;SDS011;5241;47.830;12.972;2022-11-15T05:26:06;3.60;;;3.27;;
10389;SDS011;5241;47.830;12.972;2022-11-15T05:28:32;5.73;;;2.80;;
10389;SDS011;5241;47.830;12.972;2022-11-15T05:31:05;5.37;;;3.00;;
10389;SDS011;5241;47.830;12.972;2022-11-15T05:33:49;3.77;;;3.20;;
10389;SDS011;5241;47.830;12.972;2022-11-15T05:36:34;3.93;;;3.23;;
10389;SDS011;5241;47.830;12.972;2022-11-15T05:39:03;5.00;;;3.33;;
10389;SDS011;5241;47.830;12.972;2022-11-15T05:41:34;5.13;;;3.60;;
10389;SDS011;5241;47.830;12.972;2022-11-15T05:44:04;5.53;;;3.80;;
10389;SDS011;5241;47.830;12.972;2022-11-15T05:46:32;8.90;;;3.47;;
10389;SDS011;5241;47.830;12.972;2022-11-15T05:48:58;7.63;;;3.53;;
10389;SDS011;5241;47.830;12.972;2022-11-15T05:51:24;6.80;;;3.40;;
10389;SDS011;5241;47.830;12.972;2022-11-15T05:53:51;4.17;;;3.30;;
10389;SDS011;5241;47.830;12.972;2022-11-15T05:56:18;4.57;;;3.50;;
10389;SDS011;5241;47.830;12.972;2022-11-15T05:58:44;4.70;;;2.90;;
10389;SDS011;5241;47.830;12.972;2022-11-15T06:01:09;3.50;;;3.10;;
10389;SDS011;5241;47.830;12.972;2022-11-15T06:03:35;6.27;;;3.17;;
10389;SDS011;5241;47.830;12.972;2022-11-15T06:06:01;4.20;;;3.40;;
10389;SDS011;5241;47.830;12.972;2022-11-15T06:08:26;4.10;;;3.40;;
10389;SDS011;5241;47.830;12.972;2022-11-15T06:10:52;6.63;;;3.17;;
10389;SDS011;5241;47.830;12.972;2022-11-15T06:13:18;4.60;;;3.23;;
10389;SDS011;5241;47.830;12.972;2022-11-15T06:15:43;10.07;;;3.67;;
10389;SDS011;5241;47.830;12.972;2022-11-15T06:18:09;6.77;;;2.97;;
10389;SDS011;5241;47.830;12.972;2022-11-15T06:20:35;6.00;;;3.20;;
10389;SDS011;5241;47.830;12.972;2022-11-15T06:23:01;3.73;;;3.13;;
10389;SDS011;5241;47.830;12.972;2022-11-15T06:25:28;7.03;;;3.23;;
10389;SDS011;5241;47.830;12.972;2022-11-15T06:27:55;7.03;;;3.60;;
10389;SDS011;5241;47.830;12.972;2022-11-15T06:30:22;3.73;;;3.30;;
10389;SDS011;5241;47.830;12.972;2022-11-15T06:32:49;4.80;;;3.47;;
10389;SDS011;5241;47.830;12.972;2022-11-15T06:35:15;6.23;;;3.30;;
10389;SDS011;5241;47.830;12.972;2022-11-15T06:37:41;12.90;;;4.03;;
10389;SDS011;5241;47.830;12.972;2022-11-15T06:40:08;6.13;;;3.93;;
10389;SDS011;5241;47.830;12.972;2022-11-15T06:42:34;5.90;;;3.90;;
10389;SDS011;5241;47.830;12.972;2022-11-15T06:45:00;8.43;;;3.40;;
10389;SDS011;5241;47.830;12.972;2022-11-15T06:47:26;5.47;;;3.50;;
10389;SDS011;5241;47.830;12.972;2022-11-15T06:49:51;8.70;;;3.70;;
10389;SDS011;5241;47.830;12.972;2022-11-15T06:52:17;6.60;;;3.77;;
10389;SDS011;5241;47.830;12.972;2022-11-15T06:54:44;5.60;;;3.60;;
10389;SDS011;5241;47.830;12.972;2022-11-15T06:57:10;8.70;;;3.83;;
10389;SDS011;5241;47.830;12.972;2022-11-15T06:59:35;4.53;;;3.00;;
10389;SDS011;5241;47.830;12.972;2022-11-15T07:02:01;6.57;;;3.67;;
10389;SDS011;5241;47.830;12.972;2022-11-15T07:04:27;6.23;;;3.77;;
10389;SDS011;5241;47.830;12.972;2022-11-15T07:06:53;5.47;;;3.40;;
10389;SDS011;5241;47.830;12.972;2022-11-15T07:09:18;5.87;;;3.50;;
10389;SDS011;5241;47.830;12.972;2022-11-15T07:11:44;5.40;;;3.43;;
10389;SDS011;5241;47.830;12.972;2022-11-15T07:14:09;5.60;;;3.60;;
10389;SDS011;5241;47.830;12.972;2022-11-15T07:16:35;4.23;;;3.20;;
10389;SDS011;5241;47.830;12.972;2022-11-15T07:19:02;8.10;;;3.50;;
10389;SDS011;5241;47.830;12.972;2022-11-15T07:21:27;6.73;;;3.30;;
10389;SDS011;5241;47.830;12.972;2022-11-15T07:23:53;3.77;;;3.10;;
10389;SDS011;5241;47.830;12.972;2022-11-15T07:26:19;6.47;;;3.13;;
10389;SDS011;5241;47.830;12.972;2022-11-15T07:28:44;4.33;;;3.23;;
10389;SDS011;5241;47.830;12.972;2022-11-15T07:31:10;5.60;;;3.50;;
10389;SDS011;5241;47.830;12.972;2022-11-15T07:33:36;3.27;;;2.90;;
10389;SDS011;5241;47.830;12.972;2022-11-15T07:36:02;4.70;;;3.30;;
10389;SDS011;5241;47.830;12.972;2022-11-15T07:38:30;4.63;;;3.20;;
10389;SDS011;5241;47.830;12.972;2022-11-15T07:41:00;4.27;;;2.70;;
10389;SDS011;5241;47.830;12.972;2022-11-15T07:43:27;3.20;;;2.90;;
10389;SDS011;5241;47.830;12.972;2022-11-15T07:45:54;4.20;;;3.10;;
10389;SDS011;5241;47.830;12.972;2022-11-15T07:48:20;4.70;;;3.30;;
10389;SDS011;5241;47.830;12.972;2022-11-15T07:50:47;4.37;;;3.30;;
10389;SDS011;5241;47.830;12.972;2022-11-15T07:53:12;5.77;;;2.80;;
10389;SDS011;5241;47.830;12.972;2022-11-15T07:55:39;3.57;;;3.03;;
10389;SDS011;5241;47.830;12.972;2022-11-15T07:58:06;4.83;;;3.40;;
10389;SDS011;5241;47.830;12.972;2022-11-15T08:00:34;4.37;;;3.27;;
10389;SDS011;5241;47.830;12.972;2022-11-15T08:05:32;4.93;;;3.27;;
10389;SDS011;5241;47.830;12.972;2022-11-15T08:07:58;4.13;;;3.33;;
10389;SDS011;5241;47.830;12.972;2022-11-15T08:10:24;3.40;;;3.10;;
10389;SDS011;5241;47.830;12.972;2022-11-15T08:13:00;4.60;;;2.97;;
10389;SDS011;5241;47.830;12.972;2022-11-15T08:15:31;4.10;;;3.20;;
10389;SDS011;5241;47.830;12.972;2022-11-15T08:17:58;3.20;;;2.57;;
10389;SDS011;5241;47.830;12.972;2022-11-15T08:20:25;3.67;;;2.80;;
10389;SDS011;5241;47.830;12.972;2022-11-15T08:22:54;4.13;;;3.20;;
10389;SDS011;5241;47.830;12.972;2022-11-15T08:25:21;5.17;;;2.70;;
10389;SDS011;5241;47.830;12.972;2022-11-15T08:27:47;6.53;;;3.67;;
10389;SDS011;5241;47.830;12.972;2022-11-15T08:30:16;5.67;;;3.03;;
10389;SDS011;5241;47.830;12.972;2022-11-15T08:32:42;6.30;;;3.23;;
10389;SDS011;5241;47.830;12.972;2022-11-15T08:35:07;8.20;;;3.40;;
10389;SDS011;5241;47.830;12.972;2022-11-15T08:37:33;7.27;;;3.10;;
10389;SDS011;5241;47.830;12.972;2022-11-15T08:39:59;3.70;;;3.00;;
10389;SDS011;5241;47.830;12.972;2022-11-15T08:42:24;3.50;;;3.20;;
10389;SDS011;5241;47.830;12.972;2022-11-15T08:44:50;4.20;;;3.00;;
10389;SDS011;5241;47.830;12.972;2022-11-15T08:47:15;6.43;;;3.80;;
10389;SDS011;5241;47.830;12.972;2022-11-15T08:49:41;11.50;;;6.07;;
10389;SDS011;5241;47.830;12.972;2022-11-15T08:52:06;4.50;;;2.47;;
10389;SDS011;5241;47.830;12.972;2022-11-15T08:54:32;4.20;;;2.47;;
10389;SDS011;5241;47.830;12.972;2022-11-15T08:56:57;3.03;;;2.40;;
10389;SDS011;5241;47.830;12.972;2022-11-15T08:59:23;4.87;;;2.80;;
10389;SDS011;5241;47.830;12.972;2022-11-15T09:01:49;4.17;;;2.93;;
10389;SDS011;5241;47.830;12.972;2022-11-15T09:04:14;5.80;;;2.50;;
10389;SDS011;5241;47.830;12.972;2022-11-15T09:06:40;4.23;;;2.70;;
10389;SDS011;5241;47.830;12.972;2022-11-15T09:09:05;4.67;;;2.80;;
10389;SDS011;5241;47.830;12.972;2022-11-15T09:11:31;6.63;;;2.80;;
10389;SDS011;5241;47.830;12.972;2022-11-15T09:13:57;4.93;;;3.20;;
10389;SDS011;5241;47.830;12.972;2022-11-15T09:16:22;3.80;;;3.03;;
10389;SDS011;5241;47.830;12.972;2022-11-15T09:18:48;2.93;;;2.20;;
10389;SDS011;5241;47.830;12.972;2022-11-15T09:21:14;4.53;;;2.70;;
10389;SDS011;5241;47.830;12.972;2022-11-15T09:23:39;9.47;;;4.60;;
10389;SDS011;5241;47.830;12.972;2022-11-15T09:26:05;3.80;;;3.13;;
10389;SDS011;5241;47.830;12.972;2022-11-15T09:28:31;7.33;;;4.60;;
10389;SDS011;5241;47.830;12.972;2022-11-15T09:30:58;2.33;;;2.03;;
10389;SDS011;5241;47.830;12.972;2022-11-15T09:33:25;2.03;;;1.70;;
10389;SDS011;5241;47.830;12.972;2022-11-15T09:35:51;2.17;;;1.97;;
10389;SDS011;5241;47.830;12.972;2022-11-15T09:38:16;1.70;;;1.60;;
10389;SDS011;5241;47.830;12.972;2022-11-15T09:40:43;2.90;;;1.83;;
10389;SDS011;5241;47.830;12.972;2022-11-15T09:51:08;2.80;;;2.37;;
10389;SDS011;5241;47.830;12.972;2022-11-15T09:56:21;5.30;;;4.47;;
10389;SDS011;5241;47.830;12.972;2022-11-15T10:04:36;4.97;;;1.90;;
10389;SDS011;5241;47.830;12.972;2022-11-15T10:09:57;2.80;;;1.70;;
10389;SDS011;5241;47.830;12.972;2022-11-15T10:12:28;2.63;;;2.00;;
10389;SDS011;5241;47.830;12.972;2022-11-15T10:15:03;2.73;;;2.27;;
10389;SDS011;5241;47.830;12.972;2022-11-15T10:20:22;2.77;;;2.17;;
10389;SDS011;5241;47.830;12.972;2022-11-15T10:22:51;4.43;;;2.10;;
10389;SDS011;5241;47.830;12.972;2022-11-15T10:25:27;5.20;;;2.20;;
10389;SDS011;5241;47.830;12.972;2022-11-15T10:28:03;3.90;;;2.70;;
10389;SDS011;5241;47.830;12.972;2022-11-15T10:30:38;3.43;;;1.97;;
10389;SDS011;5241;47.830;12.972;2022-11-15T10:36:13;2.53;;;2.33;;
10389;SDS011;5241;47.830;12.972;2022-11-15T10:41:22;2.97;;;2.50;;
10389;SDS011;5241;47.830;12.972;2022-11-15T10:49:21;2.27;;;2.00;;
10389;SDS011;5241;47.830;12.972;2022-11-15T10:51:55;2.00;;;1.80;;
10389;SDS011;5241;47.830;12.972;2022-11-15T10:54:27;17.07;;;13.07;;
10389;SDS011;5241;47.830;12.972;2022-11-15T10:56:56;4.67;;;2.23;;
10389;SDS011;5241;47.830;12.972;2022-11-15T10:59:26;2.77;;;2.30;;
10389;SDS011;5241;47.830;12.972;2022-11-15T11:01:56;3.90;;;2.23;;
10389;SDS011;5241;47.830;12.972;2022-11-15T11:04:22;4.87;;;3.53;;
10389;SDS011;5241;47.830;12.972;2022-11-15T11:06:49;4.63;;;2.53;;
10389;SDS011;5241;47.830;12.972;2022-11-15T11:09:25;5.00;;;3.70;;
10389;SDS011;5241;47.830;12.972;2022-11-15T11:11:52;3.17;;;2.50;;
10389;SDS011;5241;47.830;12.972;2022-11-15T11:14:25;4.27;;;2.90;;
10389;SDS011;5241;47.830;12.972;2022-11-15T11:28:02;3.40;;;2.50;;
10389;SDS011;5241;47.830;12.972;2022-11-15T11:33:33;5.70;;;3.20;;
10389;SDS011;5241;47.830;12.972;2022-11-15T11:36:25;4.03;;;3.30;;
10389;SDS011;5241;47.830;12.972;2022-11-15T11:39:21;10.00;;;4.03;;
10389;SDS011;5241;47.830;12.972;2022-11-15T11:47:12;3.07;;;2.77;;
10389;SDS011;5241;47.830;12.972;2022-11-15T11:49:52;4.80;;;3.00;;
10389;SDS011;5241;47.830;12.972;2022-11-15T11:52:25;3.70;;;2.60;;
10389;SDS011;5241;47.830;12.972;2022-11-15T11:55:16;3.33;;;2.37;;
10389;SDS011;5241;47.830;12.972;2022-11-15T11:58:04;4.47;;;2.93;;
10389;SDS011;5241;47.830;12.972;2022-11-15T12:01:32;4.03;;;2.80;;
10389;SDS011;5241;47.830;12.972;2022-11-15T12:03:46;3.90;;;2.67;;
10389;SDS011;5241;47.830;12.972;2022-11-15T12:09:16;3.00;;;2.60;;
10389;SDS011;5241;47.830;12.972;2022-11-15T12:14:54;3.23;;;2.93;;
10389;SDS011;5241;47.830;12.972;2022-11-15T12:17:24;4.20;;;2.73;;
10389;SDS011;5241;47.830;12.972;2022-11-15T12:19:52;2.97;;;2.67;;
10389;SDS011;5241;47.830;12.972;2022-11-15T12:22:23;3.23;;;2.70;;
10389;SDS011;5241;47.830;12.972;2022-11-15T12:25:05;4.87;;;3.23;;
10389;SDS011;5241;47.830;12.972;2022-11-15T12:27:53;3.30;;;3.00;;
10389;SDS011;5241;47.830;12.972;2022-11-15T12:30:46;3.27;;;2.80;;
10389;SDS011;5241;47.830;12.972;2022-11-15T12:39:04;3.73;;;2.90;;
10389;SDS011;5241;47.830;12.972;2022-11-15T12:41:35;3.60;;;3.30;;
10389;SDS011;5241;47.830;12.972;2022-11-15T12:44:02;3.40;;;3.10;;
10389;SDS011;5241;47.830;12.972;2022-11-15T13:02:39;6.27;;;3.87;;
10389;SDS011;5241;47.830;12.972;2022-11-15T13:12:52;5.93;;;4.50;;
10389;SDS011;5241;47.830;12.972;2022-11-15T13:20:53;5.13;;;4.33;;
10389;SDS011;5241;47.830;12.972;2022-11-15T13:23:19;4.40;;;4.00;;
10389;SDS011;5241;47.830;12.972;2022-11-15T13:30:56;5.33;;;4.63;;
10389;SDS011;5241;47.830;12.972;2022-11-15T13:35:58;5.60;;;4.80;;
10389;SDS011;5241;47.830;12.972;2022-11-15T13:38:28;6.40;;;5.27;;
10389;SDS011;5241;47.830;12.972;2022-11-15T13:40:56;6.23;;;5.40;;
10389;SDS011;5241;47.830;12.972;2022-11-15T13:48:31;7.03;;;5.10;;
10389;SDS011;5241;47.830;12.972;2022-11-15T13:50:58;6.63;;;5.67;;
10389;SDS011;5241;47.830;12.972;2022-11-15T13:53:30;6.83;;;5.60;;
10389;SDS011;5241;47.830;12.972;2022-11-15T13:55:57;6.63;;;5.70;;
10389;SDS011;5241;47.830;12.972;2022-11-15T13:58:23;7.93;;;5.90;;
10389;SDS011;5241;47.830;12.972;2022-11-15T14:00:49;6.10;;;5.50;;
10389;SDS011;5241;47.830;12.972;2022-11-15T14:03:25;6.40;;;5.67;;
10389;SDS011;5241;47.830;12.972;2022-11-15T14:06:10;5.47;;;4.93;;
10389;SDS011;5241;47.830;12.972;2022-11-15T14:08:42;6.97;;;6.07;;
10389;SDS011;5241;47.830;12.972;2022-11-15T14:11:25;8.23;;;6.10;;
10389;SDS011;5241;47.830;12.972;2022-11-15T14:19:05;9.10;;;6.00;;
10389;SDS011;5241;47.830;12.972;2022-11-15T14:21:34;6.63;;;5.67;;
10389;SDS011;5241;47.830;12.972;2022-11-15T14:24:19;8.10;;;6.00;;
10389;SDS011;5241;47.830;12.972;2022-11-15T14:26:46;10.73;;;6.90;;
10389;SDS011;5241;47.830;12.972;2022-11-15T14:29:28;8.07;;;7.03;;
10389;SDS011;5241;47.830;12.972;2022-11-15T14:32:13;9.63;;;7.13;;
10389;SDS011;5241;47.830;12.972;2022-11-15T14:34:41;8.87;;;6.30;;
10389;SDS011;5241;47.830;12.972;2022-11-15T14:37:20;7.80;;;6.60;;
10389;SDS011;5241;47.830;12.972;2022-11-15T14:39:48;11.17;;;7.77;;
10389;SDS011;5241;47.830;12.972;2022-11-15T14:42:14;10.80;;;7.80;;
10389;SDS011;5241;47.830;12.972;2022-11-15T14:44:40;8.20;;;6.83;;
10389;SDS011;5241;47.830;12.972;2022-11-15T14:47:06;8.77;;;6.50;;
10389;SDS011;5241;47.830;12.972;2022-11-15T14:49:32;9.77;;;8.13;;
10389;SDS011;5241;47.830;12.972;2022-11-15T14:51:57;9.63;;;7.17;;
10389;SDS011;5241;47.830;12.972;2022-11-15T14:54:23;10.33;;;7.03;;
10389;SDS011;5241;47.830;12.972;2022-11-15T14:56:48;8.50;;;6.67;;
10389;SDS011;5241;47.830;12.972;2022-11-15T14:59:14;10.63;;;7.77;;
10389;SDS011;5241;47.830;12.972;2022-11-15T15:01:39;8.17;;;6.67;;
10389;SDS011;5241;47.830;12.972;2022-11-15T15:04:05;8.60;;;6.70;;
10389;SDS011;5241;47.830;12.972;2022-11-15T15:06:30;9.57;;;6.67;;
10389;SDS011;5241;47.830;12.972;2022-11-15T15:08:56;8.80;;;7.73;;
10389;SDS011;5241;47.830;12.972;2022-11-15T15:11:28;9.37;;;7.10;;
10389;SDS011;5241;47.830;12.972;2022-11-15T15:13:56;9.07;;;7.50;;
10389;SDS011;5241;47.830;12.972;2022-11-15T15:16:24;8.47;;;7.57;;
10389;SDS011;5241;47.830;12.972;2022-11-15T15:18:50;9.97;;;7.43;;
10389;SDS011;5241;47.830;12.972;2022-11-15T15:21:23;9.53;;;8.10;;
10389;SDS011;5241;47.830;12.972;2022-11-15T15:23:50;10.30;;;8.07;;
10389;SDS011;5241;47.830;12.972;2022-11-15T15:26:18;10.37;;;7.97;;
10389;SDS011;5241;47.830;12.972;2022-11-15T15:28:44;11.17;;;8.00;;
10389;SDS011;5241;47.830;12.972;2022-11-15T15:31:10;12.80;;;8.73;;
10389;SDS011;5241;47.830;12.972;2022-11-15T15:33:36;9.97;;;8.30;;
10389;SDS011;5241;47.830;12.972;2022-11-15T15:36:02;9.90;;;8.67;;
10389;SDS011;5241;47.830;12.972;2022-11-15T15:38:29;10.67;;;8.30;;
10389;SDS011;5241;47.830;12.972;2022-11-15T15:40:55;11.33;;;9.27;;
10389;SDS011;5241;47.830;12.972;2022-11-15T15:43:21;18.90;;;10.30;;
10389;SDS011;5241;47.830;12.972;2022-11-15T15:45:46;12.63;;;10.53;;
10389;SDS011;5241;47.830;12.972;2022-11-15T15:48:12;13.17;;;10.10;;
10389;SDS011;5241;47.830;12.972;2022-11-15T15:50:39;10.13;;;8.47;;
10389;SDS011;5241;47.830;12.972;2022-11-15T15:53:05;12.77;;;9.77;;
10389;SDS011;5241;47.830;12.972;2022-11-15T15:55:31;12.17;;;9.23;;
10389;SDS011;5241;47.830;12.972;2022-11-15T15:57:56;14.97;;;9.13;;
10389;SDS011;5241;47.830;12.972;2022-11-15T16:00:23;12.10;;;8.57;;
10389;SDS011;5241;47.830;12.972;2022-11-15T16:02:50;14.57;;;9.63;;
10389;SDS011;5241;47.830;12.972;2022-11-15T16:05:16;12.40;;;8.97;;
10389;SDS011;5241;47.830;12.972;2022-11-15T16:07:42;13.77;;;9.57;;
10389;SDS011;5241;47.830;12.972;2022-11-15T16:10:19;13.90;;;9.73;;
10389;SDS011;5241;47.830;12.972;2022-11-15T16:12:53;23.03;;;11.97;;
10389;SDS011;5241;47.830;12.972;2022-11-15T16:15:21;18.47;;;14.37;;
10389;SDS011;5241;47.830;12.972;2022-11-15T16:17:51;23.83;;;14.17;;
10389;SDS011;5241;47.830;12.972;2022-11-15T16:20:21;17.20;;;12.70;;
10389;SDS011;5241;47.830;12.972;2022-11-15T16:22:56;19.90;;;12.07;;
10389;SDS011;5241;47.830;12.972;2022-11-15T16:25:23;17.37;;;12.33;;
10389;SDS011;5241;47.830;12.972;2022-11-15T16:27:48;17.57;;;11.03;;
10389;SDS011;5241;47.830;12.972;2022-11-15T16:30:15;16.37;;;11.17;;
10389;SDS011;5241;47.830;12.972;2022-11-15T16:32:42;14.13;;;10.50;;
10389;SDS011;5241;47.830;12.972;2022-11-15T16:35:11;17.63;;;11.00;;
10389;SDS011;5241;47.830;12.972;2022-11-15T16:37:38;15.07;;;10.93;;
10389;SDS011;5241;47.830;12.972;2022-11-15T16:40:10;13.40;;;10.30;;
10389;SDS011;5241;47.830;12.972;2022-11-15T16:42:55;18.57;;;10.80;;
10389;SDS011;5241;47.830;12.972;2022-11-15T16:45:26;19.67;;;11.77;;
10389;SDS011;5241;47.830;12.972;2022-11-15T16:47:53;18.70;;;12.33;;
10389;SDS011;5241;47.830;12.972;2022-11-15T16:50:20;19.20;;;12.77;;
10389;SDS011;5241;47.830;12.972;2022-11-15T16:52:57;20.87;;;13.87;;
10389;SDS011;5241;47.830;12.972;2022-11-15T16:55:27;20.07;;;14.90;;
10389;SDS011;5241;47.830;12.972;2022-11-15T16:57:54;16.57;;;13.13;;
10389;SDS011;5241;47.830;12.972;2022-11-15T17:00:22;20.47;;;12.50;;
10389;SDS011;5241;47.830;12.972;2022-11-15T17:02:48;20.17;;;12.50;;
10389;SDS011;5241;47.830;12.972;2022-11-15T17:05:16;20.77;;;13.33;;
10389;SDS011;5241;47.830;12.972;2022-11-15T17:07:43;20.73;;;12.70;;
10389;SDS011;5241;47.830;12.972;2022-11-15T17:10:13;17.30;;;12.33;;
10389;SDS011;5241;47.830;12.972;2022-11-15T17:12:38;19.17;;;13.43;;
10389;SDS011;5241;47.830;12.972;2022-11-15T17:15:04;19.60;;;13.23;;
10389;SDS011;5241;47.830;12.972;2022-11-15T17:17:30;17.60;;;13.40;;
10389;SDS011;5241;47.830;12.972;2022-11-15T17:19:56;16.87;;;12.43;;
10389;SDS011;5241;47.830;12.972;2022-11-15T17:22:22;16.10;;;12.03;;